Akin, Georgia
Current Conditions -  °F | °C
As of 3:15 PM on Thursday 29 Jan 2015 (Local Time) from KCWV Reporting Station
Clear Clear  
Wind Chill: 61°   Ceiling: Unl
Heat Index: 61°   Visibility: 10mi
Dew Point: 37°   Wind: 5mph
Humidity: 42%   Direction: 220°SW
Pressure: 30.23"   Gusts: NA
Location:  32.2794°N, 81.623°W
Report Text: KCWV 292015Z AUTO 22004KT 10SM CLR 16/03 A3023 RMK AO2
Loading
Personal Weather Stations






























Interactive Weather Map New forecast layout! Learn more

10-Day Weather Forecast

Advertisements
Track Severe Weather on mobile